Saint Michaels, Arizona
Current Conditions -  °F | °C
As of 11:53 PM on Wednesday 26 Nov 2014 (Local Time) from KGUP Reporting Station
Clear Clear  
Wind Chill: 16°   Ceiling: Unl
Heat Index: 22°   Visibility: 10mi
Dew Point:   Wind: 5mph
Humidity: 55%   Direction: 90°E
Pressure: 30.49"   Gusts: NA
Location:  35.64°N, 109.1°W
Report Text: KGUP 270653Z AUTO 09004KT 10SM CLR M06/M13 A3049 RMK AO2 SLP315 T10561133 401671083
Loading
Personal Weather Stations






























Interactive Weather Map New forecast layout! Learn more

10-Day Weather Forecast

Advertisements
Track Severe Weather on mobile